Time;durP1;ratioP1;P1;durP2;ratioP2;P2;SDS_P1;SDS_P2;PMS_P1;PMS_P2;Temp;Humidity;BMP_temperature;BMP_pressure;BME280_temperature;BME280_humidity;BME280_pressure;Samples;Min_cycle;Max_cycle;Signal;HPM_P1;HPM_P2
2022/11/08 00:02:30;;;;;;;5.97;1.80;;;;;;;13.46;100.00;100882.63;5222795;28;20050;-73
2022/11/08 00:16:21;;;;;;;9.50;2.45;;;;;;;13.32;100.00;100878.69;5220308;28;20042;-73
2022/11/08 00:18:52;;;;;;;9.65;2.28;;;;;;;13.28;100.00;100877.31;5222785;28;20033;-73
2022/11/08 00:21:23;;;;;;;6.60;2.40;;;;;;;13.13;100.00;100868.22;5227344;28;20466;-73
2022/11/08 00:23:55;;;;;;;7.95;1.98;;;;;;;13.22;100.00;100880.53;5222852;28;20550;-73
2022/11/08 00:26:26;;;;;;;8.27;2.63;;;;;;;13.14;100.00;100873.38;5223005;28;20105;-73
2022/11/08 00:28:58;;;;;;;6.72;1.80;;;;;;;13.11;100.00;100871.03;5222092;28;20079;-73
2022/11/08 00:31:29;;;;;;;7.57;1.95;;;;;;;13.07;100.00;100866.22;5223944;28;20017;-73
2022/11/08 00:34:00;;;;;;;7.30;1.95;;;;;;;13.10;100.00;100879.88;5221559;28;20029;-73
2022/11/08 00:36:31;;;;;;;5.20;1.63;;;;;;;13.05;100.00;100871.59;5224706;28;20050;-73
2022/11/08 00:39:03;;;;;;;8.65;1.92;;;;;;;13.02;100.00;100866.63;5223726;28;20048;-73
2022/11/08 00:41:34;;;;;;;7.78;2.10;;;;;;;12.98;100.00;100865.25;5221281;28;20045;-73
2022/11/08 00:44:05;;;;;;;7.03;2.20;;;;;;;13.01;100.00;100869.41;5219082;28;20363;-73
2022/11/08 00:46:37;;;;;;;6.13;2.03;;;;;;;12.91;100.00;100861.53;5223310;28;20053;-73
2022/11/08 00:49:09;;;;;;;6.35;1.98;;;;;;;12.89;100.00;100860.88;5223430;28;20394;-72
2022/11/08 00:51:40;;;;;;;8.27;2.10;;;;;;;12.86;100.00;100863.78;5223798;28;20026;-72
2022/11/08 00:54:13;;;;;;;6.70;1.90;;;;;;;12.82;100.00;100858.00;5226963;28;20022;-72
2022/11/08 00:56:46;;;;;;;7.22;2.38;;;;;;;12.80;100.00;100856.47;5219372;28;20105;-72
2022/11/08 00:59:18;;;;;;;8.90;3.13;;;;;;;12.79;100.00;100852.19;5221896;28;20071;-72
2022/11/08 01:01:49;;;;;;;4.72;2.03;;;;;;;12.81;100.00;100852.88;5242041;28;20022;-72
2022/11/08 01:04:21;;;;;;;7.60;2.30;;;;;;;12.77;100.00;100848.91;5225403;28;20729;-72
2022/11/08 01:06:52;;;;;;;6.97;2.08;;;;;;;12.77;100.00;100847.09;5228523;28;20497;-72
2022/11/08 01:09:23;;;;;;;7.38;2.17;;;;;;;12.68;100.00;100845.31;5237424;28;20371;-73
2022/11/08 01:11:54;;;;;;;6.95;2.38;;;;;;;12.68;100.00;100847.94;5226232;28;20390;-72
2022/11/08 01:14:26;;;;;;;6.13;2.05;;;;;;;12.68;100.00;100845.31;5224893;28;20038;-72
2022/11/08 01:16:57;;;;;;;6.70;1.80;;;;;;;12.64;100.00;100850.03;5222184;28;20409;-72
2022/11/08 01:19:28;;;;;;;6.38;1.92;;;;;;;12.67;100.00;100841.03;5235188;28;20037;-72
2022/11/08 01:22:00;;;;;;;6.35;2.25;;;;;;;12.66;100.00;100855.16;5225369;28;20034;-72
2022/11/08 01:24:31;;;;;;;6.50;2.00;;;;;;;12.65;100.00;100841.19;5230286;28;20053;-73
2022/11/08 01:27:02;;;;;;;9.48;2.38;;;;;;;12.61;100.00;100838.97;5228167;28;20021;-72
2022/11/08 01:29:33;;;;;;;5.53;1.80;;;;;;;12.63;100.00;100834.41;5233650;28;20029;-73
2022/11/08 01:32:05;;;;;;;8.32;2.33;;;;;;;12.63;100.00;100837.03;5224974;28;20057;-72
2022/11/08 01:34:36;;;;;;;7.88;2.35;;;;;;;12.62;100.00;100830.13;5228660;28;20029;-72
2022/11/08 01:37:07;;;;;;;6.88;2.50;;;;;;;12.64;100.00;100825.53;5229005;28;20048;-72
2022/11/08 01:39:38;;;;;;;7.88;2.38;;;;;;;12.64;100.00;100820.28;5228495;28;20025;-72
2022/11/08 01:42:10;;;;;;;6.20;2.28;;;;;;;12.67;100.00;100822.63;5227802;28;20033;-72
2022/11/08 01:45:01;;;;;;;8.10;2.50;;;;;;;12.87;100.00;100824.19;5230274;28;20021;-72
2022/11/08 01:47:32;;;;;;;7.15;2.60;;;;;;;12.63;100.00;100808.13;5228247;28;20040;-72
2022/11/08 01:50:08;;;;;;;7.10;2.90;;;;;;;12.69;100.00;100810.19;5230912;28;20037;-72
2022/11/08 01:52:44;;;;;;;7.18;2.58;;;;;;;12.68;100.00;100800.63;5227603;28;20040;-72
2022/11/08 01:55:15;;;;;;;8.02;2.95;;;;;;;12.60;100.00;100792.63;5224271;28;20032;-72
2022/11/08 01:57:49;;;;;;;8.15;2.63;;;;;;;12.63;100.00;100792.34;5228161;28;20025;-72
2022/11/08 02:00:21;;;;;;;7.17;3.00;;;;;;;12.59;100.00;100791.00;5229745;28;20033;-72
2022/11/08 02:02:56;;;;;;;8.32;2.90;;;;;;;12.57;100.00;100790.28;5228282;28;20026;-72
2022/11/08 02:05:29;;;;;;;10.35;2.60;;;;;;;12.50;100.00;100778.69;5223327;28;20120;-72
2022/11/08 02:08:18;;;;;;;8.07;3.33;;;;;;;12.71;100.00;100775.84;5228757;28;20033;-72
2022/11/08 02:10:52;;;;;;;7.00;2.75;;;;;;;12.54;100.00;100778.28;5226313;28;20458;-72
2022/11/08 02:13:26;;;;;;;6.22;2.50;;;;;;;12.54;100.00;100773.03;5231507;28;20474;-71
2022/11/08 02:15:57;;;;;;;7.93;2.50;;;;;;;12.49;100.00;100772.63;5224826;28;20061;-72
2022/11/08 02:18:31;;;;;;;5.35;2.03;;;;;;;12.52;100.00;100772.34;5235607;28;20021;-72
2022/11/08 02:21:16;;;;;;;7.88;2.45;;;;;;;12.61;100.00;100760.13;5224280;28;21196;-72
2022/11/08 02:23:58;;;;;;;5.45;2.03;;;;;;;12.51;100.00;100762.81;5220283;28;20108;-72
2022/11/08 02:26:34;;;;;;;9.55;2.40;;;;;;;12.59;100.00;100751.56;5224178;28;20025;-72
2022/11/08 02:29:40;;;;;;;6.25;2.22;;;;;;;12.82;100.00;100758.09;5232554;28;20080;-72
2022/11/08 02:32:12;;;;;;;8.60;2.53;;;;;;;12.51;100.00;100746.22;5198888;28;20038;-72
2022/11/08 02:34:48;;;;;;;9.43;2.30;;;;;;;12.54;100.00;100736.25;5216562;28;20056;-72
2022/11/08 02:37:21;;;;;;;9.45;2.25;;;;;;;12.46;100.00;100735.28;5266519;22;20057;-80
2022/11/08 02:39:52;;;;;;;4.82;1.90;;;;;;;12.48;100.00;100734.19;5272875;28;20264;-78
2022/11/08 02:42:23;;;;;;;7.50;2.67;;;;;;;12.43;100.00;100723.28;5278558;28;20050;-78
2022/11/08 02:44:55;;;;;;;3.90;1.65;;;;;;;12.39;100.00;100722.75;5277510;28;20061;-77
2022/11/08 02:47:26;;;;;;;8.13;2.10;;;;;;;12.38;100.00;100723.69;5265361;28;20481;-78
2022/11/08 02:49:57;;;;;;;7.03;2.10;;;;;;;12.37;100.00;100718.59;5262428;28;20028;-78
2022/11/08 02:52:28;;;;;;;6.05;2.00;;;;;;;12.36;100.00;100706.44;5267845;28;20294;-78
2022/11/08 02:55:00;;;;;;;6.88;2.55;;;;;;;12.35;100.00;100705.63;5265568;28;20437;-78
2022/11/08 02:57:31;;;;;;;5.18;1.98;;;;;;;12.37;100.00;100698.41;5265461;28;20489;-78
2022/11/08 03:00:03;;;;;;;4.80;1.48;;;;;;;12.31;100.00;100701.63;5264593;28;20473;-79
2022/11/08 03:02:34;;;;;;;7.30;1.85;;;;;;;12.32;100.00;100692.78;5264083;28;20043;-78
2022/11/08 03:05:06;;;;;;;7.07;1.88;;;;;;;12.33;100.00;100686.53;5267774;28;20066;-80
2022/11/08 03:07:37;;;;;;;8.40;2.35;;;;;;;12.34;100.00;100687.34;5269005;28;20044;-78
2022/11/08 03:10:09;;;;;;;7.40;2.10;;;;;;;12.41;100.00;100672.69;5267776;28;20499;-78
2022/11/08 03:12:44;;;;;;;4.45;1.38;;;;;;;12.45;100.00;100674.03;5266191;28;20021;-78
2022/11/08 03:15:15;;;;;;;6.47;1.75;;;;;;;12.41;100.00;100670.88;5269182;28;20436;-78
2022/11/08 03:17:46;;;;;;;6.95;2.10;;;;;;;12.37;100.00;100666.88;5268229;28;20038;-78
2022/11/08 03:20:18;;;;;;;6.32;2.20;;;;;;;12.38;100.00;100667.72;5265640;28;20098;-77
2022/11/08 03:22:57;;;;;;;6.43;1.70;;;;;;;12.44;100.00;100679.44;5267507;28;20047;-80
2022/11/08 03:25:28;;;;;;;4.85;2.13;;;;;;;12.27;100.00;100663.47;5260380;28;20033;-78
2022/11/08 03:28:05;;;;;;;6.90;2.17;;;;;;;12.35;100.00;100662.75;5265818;28;20028;-78
2022/11/08 03:30:36;;;;;;;5.60;1.88;;;;;;;12.23;100.00;100648.97;5268386;28;20456;-78
2022/11/08 03:33:07;;;;;;;5.30;2.00;;;;;;;12.27;100.00;100660.84;5265380;28;20061;-78
2022/11/08 03:35:39;;;;;;;6.15;2.00;;;;;;;12.26;100.00;100653.94;5266278;28;20039;-77
2022/11/08 03:38:10;;;;;;;6.72;1.65;;;;;;;12.26;100.00;100640.81;5268124;28;20084;-78
2022/11/08 03:40:41;;;;;;;8.60;2.25;;;;;;;12.26;100.00;100640.00;5265897;28;20037;-78
2022/11/08 03:43:13;;;;;;;4.57;1.88;;;;;;;12.15;100.00;100628.69;5264709;28;20036;-78
2022/11/08 03:45:45;;;;;;;5.05;1.58;;;;;;;12.13;100.00;100621.94;5266505;28;20094;-77
2022/11/08 03:48:17;;;;;;;5.95;1.60;;;;;;;12.15;100.00;100617.38;5261884;28;20095;-77
2022/11/08 03:50:50;;;;;;;7.57;2.28;;;;;;;12.12;100.00;100607.13;5262356;28;20017;-78
2022/11/08 03:53:21;;;;;;;6.47;1.92;;;;;;;12.06;100.00;100610.38;5265587;28;20124;-78
2022/11/08 03:55:53;;;;;;;7.10;2.17;;;;;;;12.05;100.00;100606.09;5264586;28;20123;-77
2022/11/08 03:58:24;;;;;;;5.82;1.75;;;;;;;12.00;100.00;100597.81;5268371;28;20370;-79
2022/11/08 04:04:23;;;;;;;4.35;1.90;;;;;;;11.97;100.00;100595.47;5260456;28;20028;-80
2022/11/08 04:06:54;;;;;;;9.23;2.00;;;;;;;12.02;100.00;100598.50;5264540;28;20386;-78
2022/11/08 04:09:26;;;;;;;6.78;1.65;;;;;;;12.02;100.00;100594.06;5262146;28;20561;-77
2022/11/08 04:23:18;;;;;;;11.20;1.75;;;;;;;12.03;100.00;100569.47;5267000;28;20037;-77
2022/11/08 04:25:54;;;;;;;6.35;1.80;;;;;;;12.12;100.00;100559.88;5265536;28;20485;-79
2022/11/08 04:28:28;;;;;;;5.75;1.95;;;;;;;12.05;100.00;100564.09;5262610;28;20047;-78
2022/11/08 04:31:02;;;;;;;8.35;2.53;;;;;;;12.06;100.00;100557.84;5263706;28;20512;-78
2022/11/08 04:33:34;;;;;;;7.95;2.60;;;;;;;12.06;100.00;100555.22;5265307;28;20035;-79
2022/11/08 04:36:08;;;;;;;7.47;2.78;;;;;;;12.08;100.00;100551.47;5265089;28;20037;-78
2022/11/08 04:38:40;;;;;;;8.75;2.50;;;;;;;12.05;100.00;100543.91;5270087;28;20025;-79
2022/11/08 04:41:13;;;;;;;7.63;2.72;;;;;;;12.07;100.00;100544.56;5264952;28;20093;-78
2022/11/08 04:43:44;;;;;;;;;;;;;;;12.56;100.00;100547.69;5269772;28;20024;-78
2022/11/08 04:46:18;;;;;;;9.67;3.67;;;;;;;12.09;100.00;100539.19;5268243;28;19942;-77
2022/11/08 04:48:54;;;;;;;10.23;2.85;;;;;;;12.02;100.00;100523.19;5270086;28;20362;-77
2022/11/08 04:51:31;;;;;;;7.20;2.35;;;;;;;12.06;100.00;100527.16;5267857;28;20028;-80
2022/11/08 04:54:03;;;;;;;8.80;2.30;;;;;;;12.03;100.00;100514.31;5269269;28;20052;-78
2022/11/08 04:56:35;;;;;;;7.82;2.55;;;;;;;12.01;100.00;100516.28;5268122;28;20056;-78
2022/11/08 04:59:06;;;;;;;7.70;2.78;;;;;;;11.98;100.00;100513.97;5272169;28;20820;-77
2022/11/08 05:01:37;;;;;;;9.75;2.38;;;;;;;11.93;100.00;100509.16;5266814;28;20020;-78
2022/11/08 05:04:09;;;;;;;7.25;2.40;;;;;;;11.95;100.00;100518.66;5268946;28;20439;-78
2022/11/08 05:06:40;;;;;;;6.45;2.58;;;;;;;11.96;100.00;100515.06;5272389;28;20028;-78
2022/11/08 05:09:11;;;;;;;7.20;2.55;;;;;;;11.97;100.00;100508.84;5267472;28;20067;-78
2022/11/08 05:11:42;;;;;;;9.07;2.42;;;;;;;11.87;100.00;100503.66;5272099;28;20025;-77
2022/11/08 05:14:14;;;;;;;7.30;2.15;;;;;;;11.86;100.00;100504.63;5263844;28;20059;-78
2022/11/08 05:16:45;;;;;;;5.78;2.50;;;;;;;11.81;100.00;100501.56;5266312;28;20025;-79
2022/11/08 05:23:22;;;;;;;7.13;2.47;;;;;;;11.85;100.00;100514.28;5271471;28;20025;-77
2022/11/08 05:24:58;;;;;;;6.38;2.03;;;;;;;11.82;100.00;100506.69;5268150;28;20041;-80
2022/11/08 05:27:30;;;;;;;6.50;2.47;;;;;;;11.79;100.00;100493.84;5268691;28;20024;-78
2022/11/08 05:30:01;;;;;;;8.13;2.72;;;;;;;11.78;100.00;100486.13;5268143;28;20124;-80
2022/11/08 05:32:32;;;;;;;5.97;2.45;;;;;;;11.80;100.00;100490.25;5271443;28;20027;-78
2022/11/08 05:35:04;;;;;;;7.45;2.45;;;;;;;11.74;100.00;100485.56;5268336;28;20036;-78
2022/11/08 05:37:39;;;;;;;9.48;2.88;;;;;;;11.86;100.00;100491.50;5269126;28;20040;-78
2022/11/08 05:40:11;;;;;;;12.57;2.80;;;;;;;11.75;100.00;100479.38;5268831;28;20432;-78
2022/11/08 05:42:42;;;;;;;7.10;2.80;;;;;;;11.77;100.00;100487.09;5264604;28;20093;-80
2022/11/08 05:45:13;;;;;;;8.55;2.97;;;;;;;11.74;100.00;100482.94;5269783;28;20024;-77
2022/11/08 05:47:45;;;;;;;7.90;2.85;;;;;;;11.72;100.00;100484.09;5262363;28;20059;-78
2022/11/08 05:50:17;;;;;;;8.57;2.50;;;;;;;11.72;100.00;100484.91;5262740;28;20040;-80
2022/11/08 05:52:48;;;;;;;7.05;2.88;;;;;;;11.65;100.00;100482.03;5265543;28;20024;-77
2022/11/08 05:55:19;;;;;;;9.23;3.00;;;;;;;11.71;100.00;100485.91;5267969;28;20082;-78
2022/11/08 05:57:50;;;;;;;9.15;3.05;;;;;;;11.66;100.00;100482.88;5267869;28;20044;-77
2022/11/08 06:00:22;;;;;;;7.72;3.05;;;;;;;11.64;100.00;100479.56;5263039;28;20107;-78
2022/11/08 06:02:53;;;;;;;8.32;2.97;;;;;;;11.65;100.00;100468.09;5269765;28;20029;-78
2022/11/08 06:05:24;;;;;;;7.97;2.85;;;;;;;11.66;100.00;100467.13;5265825;28;20029;-77
2022/11/08 06:07:56;;;;;;;9.63;2.88;;;;;;;11.59;100.00;100469.53;5268457;28;20030;-78
2022/11/08 06:10:27;;;;;;;7.38;2.42;;;;;;;11.61;100.00;100464.94;5265801;28;20489;-77
2022/11/08 06:13:02;;;;;;;8.68;3.17;;;;;;;11.57;100.00;100466.22;5269769;28;20104;-77
2022/11/08 06:15:33;;;;;;;6.60;2.60;;;;;;;11.61;100.00;100472.00;5264038;28;20037;-78
2022/11/08 06:18:04;;;;;;;5.95;2.33;;;;;;;11.63;100.00;100473.50;5267221;28;20043;-78
2022/11/08 06:20:36;;;;;;;6.93;2.63;;;;;;;11.55;100.00;100460.25;5266160;28;20028;-78
2022/11/08 06:23:07;;;;;;;7.55;2.65;;;;;;;11.58;100.00;100469.66;5262153;28;20068;-77
2022/11/08 06:25:38;;;;;;;8.10;3.08;;;;;;;11.57;100.00;100468.00;5268101;28;20082;-78
2022/11/08 06:28:09;;;;;;;9.77;3.30;;;;;;;11.57;100.00;100468.00;5265579;28;20044;-78
2022/11/08 06:30:41;;;;;;;7.97;2.50;;;;;;;11.58;100.00;100473.09;5266324;28;20033;-77
2022/11/08 06:33:12;;;;;;;6.88;2.53;;;;;;;11.57;100.00;100474.06;5267164;28;20112;-80
2022/11/08 06:35:44;;;;;;;6.15;2.67;;;;;;;11.53;100.00;100474.53;5268504;28;20039;-77
2022/11/08 06:38:15;;;;;;;7.05;2.53;;;;;;;11.51;100.00;100474.66;5269608;28;20032;-77
2022/11/08 06:40:47;;;;;;;8.32;3.28;;;;;;;11.51;100.00;100479.91;5265865;28;20025;-79
2022/11/08 06:43:18;;;;;;;6.05;2.45;;;;;;;11.47;100.00;100473.28;5267522;28;20473;-77
2022/11/08 06:45:49;;;;;;;7.13;2.33;;;;;;;11.51;100.00;100465.94;5267562;28;20091;-78
2022/11/08 06:48:20;;;;;;;5.40;2.58;;;;;;;11.51;100.00;100479.91;5264204;28;20030;-78
2022/11/08 06:50:52;;;;;;;6.15;2.28;;;;;;;11.49;100.00;100486.28;5265922;28;20083;-78
2022/11/08 06:53:23;;;;;;;6.47;2.45;;;;;;;11.48;100.00;100476.72;5269638;28;20042;-79
2022/11/08 06:55:54;;;;;;;5.25;2.10;;;;;;;11.43;100.00;100470.13;5267957;28;20098;-78
2022/11/08 06:58:25;;;;;;;7.50;2.25;;;;;;;11.44;100.00;100466.56;5262785;28;20037;-77
2022/11/08 07:00:57;;;;;;;6.93;2.17;;;;;;;11.42;100.00;100481.59;5266903;28;20064;-77
2022/11/08 07:03:28;;;;;;;7.13;2.30;;;;;;;11.40;100.00;100477.47;5265179;28;20029;-78
2022/11/08 07:06:01;;;;;;;6.40;2.40;;;;;;;11.44;100.00;100487.53;5265045;28;20050;-79
2022/11/08 07:08:33;;;;;;;;;;;;;;;12.04;100.00;100492.34;5270037;28;20060;-77
2022/11/08 07:11:05;;;;;;;5.13;1.92;;;;;;;11.49;100.00;100496.78;5264015;28;19928;-77
2022/11/08 07:13:36;;;;;;;8.70;1.92;;;;;;;11.48;100.00;100501.19;5260943;28;20021;-77
2022/11/08 07:16:07;;;;;;;4.35;1.95;;;;;;;11.48;100.00;100492.47;5265179;28;20691;-78
2022/11/08 07:18:39;;;;;;;3.92;1.80;;;;;;;11.52;100.00;100486.81;5269205;28;20028;-77
2022/11/08 07:21:11;;;;;;;3.47;1.40;;;;;;;11.48;100.00;100489.84;5269009;28;20031;-78
2022/11/08 07:23:42;;;;;;;4.93;1.88;;;;;;;11.57;100.00;100487.19;5267593;28;20031;-79
2022/11/08 07:26:14;;;;;;;5.93;2.05;;;;;;;11.54;100.00;100481.41;5264546;28;20378;-77
2022/11/08 07:28:45;;;;;;;6.20;2.00;;;;;;;11.53;100.00;100482.38;5268418;28;20154;-78
2022/11/08 07:31:17;;;;;;;5.00;1.92;;;;;;;11.60;100.00;100483.47;5268106;28;20090;-79
2022/11/08 07:33:49;;;;;;;6.82;2.17;;;;;;;11.66;100.00;100493.34;5266342;28;20025;-77
2022/11/08 07:36:20;;;;;;;4.30;1.33;;;;;;;11.66;100.00;100483.69;5267682;28;20045;-77
2022/11/08 07:38:51;;;;;;;4.65;1.60;;;;;;;11.74;100.00;100480.31;5267951;28;20797;-77
2022/11/08 07:41:23;;;;;;;5.10;1.60;;;;;;;11.78;100.00;100483.50;5267263;28;20029;-80
2022/11/08 07:43:54;;;;;;;5.07;1.63;;;;;;;11.95;100.00;100481.91;5263789;28;20051;-77
2022/11/08 07:46:25;;;;;;;4.85;1.50;;;;;;;11.99;100.00;100480.66;5265542;28;20094;-78
2022/11/08 07:48:56;;;;;;;4.10;1.60;;;;;;;12.12;100.00;100484.56;5266957;28;20385;-78
2022/11/08 07:51:28;;;;;;;6.50;1.48;;;;;;;12.13;100.00;100473.09;5264414;28;20036;-77
2022/11/08 07:53:59;;;;;;;3.67;1.20;;;;;;;12.18;100.00;100462.94;5265593;28;20025;-78
2022/11/08 07:56:30;;;;;;;4.05;1.45;;;;;;;12.34;100.00;100467.53;5267126;28;20029;-80
2022/11/08 07:59:02;;;;;;;4.40;1.23;;;;;;;12.41;100.00;100473.00;5268060;28;20029;-78
2022/11/08 08:01:33;;;;;;;3.75;1.27;;;;;;;12.54;100.00;100469.97;5266239;28;20028;-77
2022/11/08 08:04:04;;;;;;;6.28;1.38;;;;;;;12.64;100.00;100465.47;5264660;28;20032;-78
2022/11/08 08:06:36;;;;;;;2.75;1.10;;;;;;;12.73;100.00;100461.94;5266972;28;20458;-78
2022/11/08 08:09:07;;;;;;;2.78;1.42;;;;;;;12.84;100.00;100466.09;5264371;28;20394;-77
2022/11/08 08:11:38;;;;;;;4.00;1.10;;;;;;;12.83;100.00;100467.09;5264045;28;20039;-78
2022/11/08 08:14:10;;;;;;;3.38;1.40;;;;;;;12.95;100.00;100459.78;5263365;28;20023;-77
2022/11/08 08:16:41;;;;;;;4.57;1.42;;;;;;;12.97;100.00;100456.00;5265702;28;20044;-77
2022/11/08 08:19:12;;;;;;;3.00;1.00;;;;;;;13.11;100.00;100470.41;5264963;28;20054;-78
2022/11/08 08:21:44;;;;;;;4.20;1.30;;;;;;;13.13;100.00;100479.78;5261768;28;20024;-77
2022/11/08 08:24:16;;;;;;;4.23;1.60;;;;;;;13.18;100.00;100481.94;5263245;28;20084;-78
2022/11/08 08:26:47;;;;;;;2.65;1.10;;;;;;;13.28;100.00;100479.22;5266336;28;20085;-77
2022/11/08 08:29:19;;;;;;;2.75;1.30;;;;;;;13.27;100.00;100477.59;5264947;28;20052;-78
2022/11/08 08:31:50;;;;;;;2.70;1.00;;;;;;;13.35;100.00;100501.31;5263577;28;20029;-78
2022/11/08 08:34:21;;;;;;;2.65;1.20;;;;;;;13.38;100.00;100501.81;5264380;28;20036;-78
2022/11/08 08:36:52;;;;;;;3.00;1.15;;;;;;;13.43;100.00;100509.22;5267037;28;20402;-78
2022/11/08 08:39:24;;;;;;;3.78;1.13;;;;;;;13.50;100.00;100504.19;5267334;28;20147;-78
2022/11/08 08:41:55;;;;;;;3.03;1.25;;;;;;;13.54;100.00;100494.97;5264719;28;20036;-78
2022/11/08 08:44:26;;;;;;;4.88;1.20;;;;;;;13.57;100.00;100489.41;5267007;28;20233;-78
2022/11/08 08:46:57;;;;;;;4.32;1.20;;;;;;;13.63;100.00;100488.75;5268207;28;20021;-79
2022/11/08 08:49:29;;;;;;;5.30;1.30;;;;;;;13.69;100.00;100479.41;5265515;28;20024;-78
2022/11/08 08:52:00;;;;;;;3.63;1.23;;;;;;;13.77;100.00;100476.81;5264011;28;20016;-78
2022/11/08 08:54:31;;;;;;;5.68;1.20;;;;;;;13.80;100.00;100479.94;5267938;28;20029;-78
2022/11/08 08:57:02;;;;;;;3.70;1.13;;;;;;;13.90;100.00;100478.97;5263276;28;20021;-79
2022/11/08 08:59:34;;;;;;;4.57;1.20;;;;;;;13.83;100.00;100471.72;5261888;28;20025;-79
2022/11/08 09:02:05;;;;;;;4.03;1.80;;;;;;;13.79;100.00;100462.50;5264809;28;20033;-79
2022/11/08 09:04:37;;;;;;;2.63;1.33;;;;;;;13.90;100.00;100464.00;5266221;28;20017;-79
2022/11/08 09:07:09;;;;;;;2.75;1.08;;;;;;;13.91;100.00;100446.41;5262896;28;20036;-79
2022/11/08 09:09:40;;;;;;;3.42;1.30;;;;;;;13.98;100.00;100447.38;5267103;28;20025;-79
2022/11/08 09:12:11;;;;;;;3.75;1.10;;;;;;;14.02;100.00;100451.38;5266146;28;20057;-79
2022/11/08 09:14:42;;;;;;;3.90;1.48;;;;;;;14.10;100.00;100460.09;5266965;28;20378;-79
2022/11/08 09:17:14;;;;;;;3.30;1.35;;;;;;;14.14;100.00;100468.50;5263978;28;20444;-79
2022/11/08 09:19:45;;;;;;;2.90;1.20;;;;;;;14.15;100.00;100474.59;5265728;28;20032;-79
2022/11/08 09:22:16;;;;;;;4.72;1.20;;;;;;;14.20;100.00;100459.94;5256754;28;20052;-79
2022/11/08 09:24:47;;;;;;;5.10;1.17;;;;;;;14.25;100.00;100441.84;5263551;28;20032;-79
2022/11/08 09:27:19;;;;;;;2.85;1.30;;;;;;;14.30;100.00;100454.53;5274215;28;20028;-78
2022/11/08 09:29:50;;;;;;;3.13;1.42;;;;;;;14.24;100.00;100439.34;5266872;28;20334;-79
2022/11/08 09:32:23;;;;;;;4.10;1.40;;;;;;;14.24;100.00;100432.25;5269857;28;20059;-79
2022/11/08 09:34:55;;;;;;;6.15;1.50;;;;;;;14.33;100.00;100457.66;5264631;28;20448;-79
2022/11/08 09:37:27;;;;;;;2.78;1.27;;;;;;;14.38;100.00;100453.69;5266408;28;20094;-78
2022/11/08 09:39:59;;;;;;;3.35;1.30;;;;;;;14.49;100.00;100462.13;5271377;28;20037;-79
2022/11/08 09:42:45;;;;;;;3.88;1.52;;;;;;;14.63;100.00;100450.09;5266425;28;20078;-79
2022/11/08 09:45:35;;;;;;;5.82;1.20;;;;;;;14.65;100.00;100447.28;5268549;28;20489;-79
2022/11/08 09:48:19;;;;;;;2.25;1.17;;;;;;;14.75;100.00;100447.94;5265056;28;20036;-79
2022/11/08 09:50:53;;;;;;;5.22;1.50;;;;;;;14.74;100.00;100449.78;5270379;28;20033;-78
2022/11/08 09:53:39;;;;;;;4.13;1.13;;;;;;;14.94;100.00;100465.22;5269493;28;20021;-80
2022/11/08 09:56:22;;;;;;;4.30;1.55;;;;;;;14.95;100.00;100458.97;5267423;28;20131;-79
2022/11/08 09:59:19;;;;;;;;;;;;;;;15.44;100.00;100467.56;5266901;28;20485;-79
2022/11/08 10:01:50;;;;;;;5.00;1.40;;;;;;;15.02;100.00;100459.94;5265314;28;19931;-79
2022/11/08 10:04:25;;;;;;;2.67;1.42;;;;;;;15.13;100.00;100462.22;5263446;28;20021;-79
2022/11/08 10:07:12;;;;;;;2.72;1.33;;;;;;;15.28;100.00;100459.69;5269266;28;20025;-79
2022/11/08 10:09:55;;;;;;;7.95;1.60;;;;;;;15.32;100.00;100480.31;5269266;28;20493;-80
2022/11/08 10:12:43;;;;;;;5.35;1.20;;;;;;;15.34;100.00;100469.56;5265894;28;20049;-79
2022/11/08 10:15:21;;;;;;;4.65;1.65;;;;;;;15.47;100.00;100469.03;5270328;28;20036;-79
2022/11/08 10:18:08;;;;;;;4.53;1.48;;;;;;;15.53;100.00;100479.75;5274027;28;20029;-79
2022/11/08 10:20:58;;;;;;;2.83;1.30;;;;;;;15.56;100.00;100476.75;5269391;28;20029;-79
2022/11/08 10:23:41;;;;;;;5.25;1.50;;;;;;;15.55;100.00;100484.84;5271142;28;20116;-79
2022/11/08 10:26:16;;;;;;;2.60;1.30;;;;;;;15.60;100.00;100481.69;5272813;28;20043;-79
2022/11/08 10:28:54;;;;;;;3.53;1.40;;;;;;;15.58;100.00;100481.88;5274695;28;20035;-79
2022/11/08 10:31:29;;;;;;;4.10;1.60;;;;;;;15.63;100.00;100491.91;5274460;28;20049;-79
2022/11/08 10:34:09;;;;;;;3.60;1.60;;;;;;;15.64;100.00;100499.66;5272090;28;20485;-80
2022/11/08 10:36:43;;;;;;;4.55;1.80;;;;;;;15.63;100.00;100498.00;5274269;28;20060;-81
2022/11/08 10:39:20;;;;;;;5.13;1.58;;;;;;;15.68;100.00;100493.09;5280212;28;20023;-80
2022/11/08 10:41:55;;;;;;;4.00;1.40;;;;;;;15.60;100.00;100487.78;5277785;28;20032;-79
2022/11/08 10:44:27;;;;;;;3.63;1.50;;;;;;;15.65;100.00;100495.22;5275274;28;20500;-81
2022/11/08 10:47:02;;;;;;;3.65;1.60;;;;;;;15.75;100.00;100490.56;5277207;28;20080;-80
2022/11/08 10:49:37;;;;;;;2.38;1.35;;;;;;;15.66;100.00;100492.41;5272480;28;20886;-79
2022/11/08 10:52:15;;;;;;;4.15;1.52;;;;;;;15.70;100.00;100493.72;5267973;28;20499;-78
2022/11/08 10:54:52;;;;;;;3.03;1.80;;;;;;;15.73;100.00;100474.06;5273981;28;20032;-80
2022/11/08 10:57:41;;;;;;;3.17;1.33;;;;;;;15.92;100.00;100486.03;5271129;28;20037;-79
2022/11/08 11:00:18;;;;;;;2.65;1.27;;;;;;;15.95;100.00;100483.03;5278428;28;20032;-80
2022/11/08 11:03:09;;;;;;;3.60;1.55;;;;;;;15.96;100.00;100474.13;5274365;28;20033;-79
2022/11/08 11:05:42;;;;;;;4.80;1.27;;;;;;;15.88;100.00;100485.56;5272824;28;20074;-79
2022/11/08 11:08:15;;;;;;;6.00;1.40;;;;;;;15.90;100.00;100467.69;5279272;28;20028;-81
2022/11/08 11:10:47;;;;;;;;;;;;;;;16.46;100.00;100464.84;5273108;28;20024;-80
2022/11/08 11:13:18;;;;;;;3.47;1.50;;;;;;;15.97;100.00;100446.69;5274184;28;19912;-80
2022/11/08 11:15:58;;;;;;;3.85;1.58;;;;;;;15.98;100.00;100443.03;5272286;28;20104;-80
2022/11/08 11:18:34;;;;;;;3.75;1.55;;;;;;;15.95;100.00;100462.72;5276194;28;20107;-79
2022/11/08 11:21:12;;;;;;;4.72;1.65;;;;;;;16.01;100.00;100446.16;5271007;28;20050;-80
2022/11/08 11:23:54;;;;;;;4.40;1.60;;;;;;;15.90;100.00;100454.47;5273211;28;20107;-80
2022/11/08 11:26:28;;;;;;;4.63;1.33;;;;;;;15.98;100.00;100437.75;5270374;28;20398;-79
2022/11/08 11:29:08;;;;;;;2.58;1.30;;;;;;;16.14;100.00;100420.97;5272028;28;20112;-79
2022/11/08 11:31:43;;;;;;;2.38;1.08;;;;;;;16.15;100.00;100417.34;5267491;28;20036;-80
2022/11/08 11:34:17;;;;;;;2.65;1.23;;;;;;;16.22;100.00;100421.75;5271589;28;20032;-79
2022/11/08 11:37:03;;;;;;;4.95;1.48;;;;;;;16.34;100.00;100422.16;5272806;28;20132;-80
2022/11/08 11:40:02;;;;;;;5.43;1.60;;;;;;;16.52;100.00;100453.56;5273748;28;20370;-79
2022/11/08 11:43:01;;;;;;;4.70;1.20;;;;;;;16.37;100.00;100432.38;5270902;28;20035;-79
2022/11/08 11:45:53;;;;;;;5.80;1.45;;;;;;;16.49;100.00;100427.47;5269332;28;20039;-79
2022/11/08 11:48:30;;;;;;;5.95;1.40;;;;;;;16.33;100.00;100417.88;5269471;28;20094;-80
2022/11/08 11:51:01;;;;;;;4.53;1.52;;;;;;;16.35;100.00;100428.25;5273809;28;20056;-81
2022/11/08 11:53:35;;;;;;;3.47;1.40;;;;;;;16.22;100.00;100419.09;5271983;28;20063;-79
2022/11/08 11:56:22;;;;;;;2.67;1.35;;;;;;;16.38;100.00;100412.03;5276159;28;20024;-80
2022/11/08 11:59:36;;;;;;;3.55;1.30;;;;;;;16.45;100.00;100411.16;5274615;28;20029;-80
2022/11/08 12:02:39;;;;;;;3.10;1.60;;;;;;;16.46;100.00;100418.06;5273010;28;20071;-82
2022/11/08 12:05:42;;;;;;;4.03;1.58;;;;;;;16.54;100.00;100417.16;5274627;28;20055;-80
2022/11/08 12:08:35;;;;;;;4.13;1.30;;;;;;;16.25;100.00;100417.91;5261958;28;20406;-79
2022/11/08 12:11:35;;;;;;;4.38;1.40;;;;;;;16.37;100.00;100410.41;5273373;28;20025;-79
2022/11/08 12:14:56;;;;;;;3.45;1.65;;;;;;;16.47;100.00;100401.19;5272714;28;20025;-81
2022/11/08 12:17:36;;;;;;;4.40;1.23;;;;;;;16.36;100.00;100395.50;5268481;28;20048;-79
2022/11/08 12:20:21;;;;;;;2.58;1.20;;;;;;;16.35;100.00;100407.09;5277451;28;20650;-79